Terminal Aerodrome Forecast
Issued by NWS

Home | Current Version | Previous Version | Text Only | Print | Product List | Glossary On
Versions: 1 2 3 4 5 6 7 8 9 10 11 12 13 14 15 16 17 18 19 20 21 22 23 24 25
000
FTUS41 KALY 052332
TAFPSF
TAF
KPSF 052332Z 0600/0624 25003KT P6SM SKC
     FM060400 00000KT 4SM BR SKC
      TEMPO 0604/0606 2SM BR BKN005
     FM060600 00000KT 2SM BR BKN003
     FM060800 00000KT 1/2SM FG VV002
     FM061100 00000KT 2SM BR SCT002
     FM061200 24003KT P6SM FEW045
     FM061800 22006KT P6SM FEW045 SCT200=

USA.gov is the U.S. government's official web portal to all federal, state and local government web resources and services.